Time;durP1;ratioP1;P1;durP2;ratioP2;P2;SDS_P1;SDS_P2;PMS_P1;PMS_P2;Temp;Humidity;BMP_temperature;BMP_pressure;BME280_temperature;BME280_humidity;BME280_pressure;Samples;Min_cycle;Max_cycle;Signal;HPM_P1;HPM_P2
2023/09/23 00:01:37;;;;;;;9.43;4.18;;;;;;;;;;6325928;28;20445;-75
2023/09/23 00:04:39;;;;;;;9.95;4.47;;;;;;;;;;6338951;28;20076;-76
2023/09/23 00:07:43;;;;;;;12.95;7.63;;;;;;;;;;6312880;28;20040;-75
2023/09/23 00:10:46;;;;;;;11.25;6.85;;;;;;;;;;6312479;28;20162;-74
2023/09/23 00:13:48;;;;;;;14.25;6.63;;;;;;;;;;6308533;28;20126;-75
2023/09/23 00:16:52;;;;;;;14.63;4.97;;;;;;;;;;6325484;28;20046;-75
2023/09/23 00:19:56;;;;;;;17.40;4.63;;;;;;;;;;6345120;27;20480;-75
2023/09/23 00:22:59;;;;;;;12.48;4.45;;;;;;;;;;6325044;28;20043;-75
2023/09/23 00:26:02;;;;;;;13.38;5.25;;;;;;;;;;6325159;28;20453;-75
2023/09/23 00:29:04;;;;;;;10.95;6.68;;;;;;;;;;6322095;28;20797;-75
2023/09/23 00:32:07;;;;;;;9.38;6.20;;;;;;;;;;6304387;28;20118;-75
2023/09/23 00:35:11;;;;;;;14.35;6.22;;;;;;;;;;6337999;28;20044;-75
2023/09/23 00:38:17;;;;;;;10.05;5.50;;;;;;;;;;6323587;28;20042;-75
2023/09/23 00:41:25;;;;;;;13.13;6.38;;;;;;;;;;6294446;28;20062;-75
2023/09/23 00:44:28;;;;;;;15.93;7.88;;;;;;;;;;6337656;28;20122;-75
2023/09/23 00:47:31;;;;;;;14.13;4.85;;;;;;;;;;6338198;28;20604;-75
2023/09/23 00:50:34;;;;;;;13.70;6.75;;;;;;;;;;6305842;28;20051;-75
2023/09/23 00:53:39;;;;;;;12.75;4.45;;;;;;;;;;6329919;28;20438;-75
2023/09/23 00:56:46;;;;;;;15.63;7.75;;;;;;;;;;6326109;28;20067;-75
2023/09/23 00:59:52;;;;;;;12.00;6.82;;;;;;;;;;6336533;28;20278;-75
2023/09/23 01:02:59;;;;;;;13.55;7.57;;;;;;;;;;6337144;28;20038;-75
2023/09/23 01:06:16;;;;;;;14.82;7.07;;;;;;;;;;6320704;28;20100;-75
2023/09/23 01:09:21;;;;;;;15.57;6.75;;;;;;;;;;6336256;28;20126;-75
2023/09/23 01:12:27;;;;;;;12.55;6.95;;;;;;;;;;6323917;28;20043;-75
2023/09/23 01:15:31;;;;;;;12.27;8.20;;;;;;;;;;6322037;28;20046;-75
2023/09/23 01:18:34;;;;;;;15.05;7.30;;;;;;;;;;6321394;28;20035;-74
2023/09/23 01:21:37;;;;;;;16.77;8.13;;;;;;;;;;6308007;28;20108;-75
2023/09/23 01:24:40;;;;;;;12.10;7.60;;;;;;;;;;6327440;28;20124;-74
2023/09/23 01:27:42;;;;;;;11.13;7.85;;;;;;;;;;6331268;28;20054;-75
2023/09/23 01:30:46;;;;;;;14.85;5.35;;;;;;;;;;6287255;28;20444;-75
2023/09/23 01:33:50;;;;;;;12.27;6.72;;;;;;;;;;6294595;28;20055;-74
2023/09/23 01:36:53;;;;;;;12.20;7.65;;;;;;;;;;6337197;28;20040;-74
2023/09/23 01:39:56;;;;;;;11.80;5.05;;;;;;;;;;6325961;28;20066;-75
2023/09/23 01:42:59;;;;;;;11.45;8.05;;;;;;;;;;6327960;28;20160;-74
2023/09/23 01:46:03;;;;;;;12.27;7.32;;;;;;;;;;6328033;28;20576;-75
2023/09/23 01:49:06;;;;;;;16.05;7.50;;;;;;;;;;6322816;28;20129;-74
2023/09/23 01:52:11;;;;;;;11.52;5.32;;;;;;;;;;6338026;28;20485;-74
2023/09/23 01:55:16;;;;;;;11.35;7.60;;;;;;;;;;6324226;28;20044;-75
2023/09/23 01:58:19;;;;;;;15.15;9.73;;;;;;;;;;6322247;28;20082;-75
2023/09/23 02:01:22;;;;;;;12.90;7.40;;;;;;;;;;6310290;28;20099;-75
2023/09/23 02:04:24;;;;;;;12.95;9.32;;;;;;;;;;6322481;28;20044;-75
2023/09/23 02:07:28;;;;;;;14.25;8.68;;;;;;;;;;6309820;28;20066;-75
2023/09/23 02:10:31;;;;;;;12.85;7.53;;;;;;;;;;6307555;28;20066;-74
2023/09/23 02:13:36;;;;;;;12.18;6.65;;;;;;;;;;6320462;28;20055;-75
2023/09/23 02:16:41;;;;;;;12.90;8.18;;;;;;;;;;6302629;28;20083;-75
2023/09/23 02:19:44;;;;;;;17.48;7.28;;;;;;;;;;6304877;28;20032;-74
2023/09/23 02:22:49;;;;;;;;;;;;;;;;;;6335911;28;20059;-75
2023/09/23 02:25:54;;;;;;;14.38;7.38;;;;;;;;;;6307000;28;20425;-75
2023/09/23 02:28:56;;;;;;;13.57;4.90;;;;;;;;;;6334648;28;20471;-75
2023/09/23 02:32:00;;;;;;;12.23;6.15;;;;;;;;;;6329873;28;20054;-75
2023/09/23 02:35:04;;;;;;;11.65;8.07;;;;;;;;;;6305953;28;20541;-75
2023/09/23 02:38:07;;;;;;;13.77;7.40;;;;;;;;;;6309432;28;20047;-74
2023/09/23 02:41:09;;;;;;;13.40;6.95;;;;;;;;;;6323278;28;20075;-74
2023/09/23 02:44:22;;;;;;;11.90;8.40;;;;;;;;;;6320330;28;20051;-74
2023/09/23 02:47:25;;;;;;;16.42;9.48;;;;;;;;;;6333823;28;20055;-75
2023/09/23 02:50:36;;;;;;;9.88;5.40;;;;;;;;;;6337563;28;20441;-74
2023/09/23 02:53:39;;;;;;;15.82;7.25;;;;;;;;;;6314137;28;20608;-74
2023/09/23 02:56:41;;;;;;;11.90;5.43;;;;;;;;;;6316494;28;20441;-74
2023/09/23 02:59:46;;;;;;;13.10;8.18;;;;;;;;;;6344203;27;20071;-75
2023/09/23 03:02:56;;;;;;;14.98;7.15;;;;;;;;;;6337403;28;20176;-75
2023/09/23 03:06:02;;;;;;;15.70;8.70;;;;;;;;;;6320193;28;20578;-74
2023/09/23 03:09:08;;;;;;;;;;;;;;;;;;6340443;27;20031;-74
2023/09/23 03:12:10;;;;;;;17.65;8.05;;;;;;;;;;6338345;27;20019;-75
2023/09/23 03:15:15;;;;;;;16.48;7.40;;;;;;;;;;6324097;28;20510;-75
2023/09/23 03:18:27;;;;;;;14.65;9.00;;;;;;;;;;6331091;28;20036;-74
2023/09/23 03:21:31;;;;;;;12.82;8.23;;;;;;;;;;6301299;28;20048;-74
2023/09/23 03:24:34;;;;;;;11.48;7.32;;;;;;;;;;6329347;28;20178;-74
2023/09/23 03:27:39;;;;;;;9.82;8.70;;;;;;;;;;6329017;28;20058;-74
2023/09/23 03:30:44;;;;;;;11.15;8.45;;;;;;;;;;6319169;28;20044;-75
2023/09/23 03:33:49;;;;;;;10.65;7.78;;;;;;;;;;6325679;28;20089;-74
2023/09/23 03:36:54;;;;;;;11.63;8.20;;;;;;;;;;6325379;28;20040;-75
2023/09/23 03:39:57;;;;;;;12.35;4.57;;;;;;;;;;6307535;28;20437;-74
2023/09/23 03:43:01;;;;;;;14.45;7.63;;;;;;;;;;6322310;28;20051;-75
2023/09/23 03:46:10;;;;;;;18.77;7.93;;;;;;;;;;6308041;28;20043;-75
2023/09/23 03:49:13;;;;;;;14.50;7.07;;;;;;;;;;6332166;28;20035;-75
2023/09/23 03:52:15;;;;;;;15.82;7.85;;;;;;;;;;6303885;28;20143;-74
2023/09/23 03:55:20;;;;;;;13.50;9.02;;;;;;;;;;6318319;28;20130;-74
2023/09/23 03:58:24;;;;;;;14.85;7.85;;;;;;;;;;6339027;28;20154;-76
2023/09/23 04:01:28;;;;;;;15.13;8.32;;;;;;;;;;6313317;28;20032;-74
2023/09/23 04:04:30;;;;;;;14.38;8.48;;;;;;;;;;6303687;28;20036;-74
2023/09/23 04:07:35;;;;;;;11.23;5.60;;;;;;;;;;6324354;28;20050;-74
2023/09/23 04:10:39;;;;;;;11.98;7.38;;;;;;;;;;6326724;28;20054;-75
2023/09/23 04:13:47;;;;;;;14.73;9.32;;;;;;;;;;6338202;28;20055;-75
2023/09/23 04:16:49;;;;;;;13.23;8.80;;;;;;;;;;6338723;28;20075;-74
2023/09/23 04:19:56;;;;;;;11.43;8.13;;;;;;;;;;6320494;28;20047;-75
2023/09/23 04:22:58;;;;;;;13.77;7.10;;;;;;;;;;6338528;28;20043;-74
2023/09/23 04:26:03;;;;;;;13.52;8.00;;;;;;;;;;6337038;28;20536;-74
2023/09/23 04:29:05;;;;;;;12.07;8.40;;;;;;;;;;6338263;28;20570;-74
2023/09/23 04:32:12;;;;;;;11.90;7.18;;;;;;;;;;6325710;28;20050;-74
2023/09/23 04:35:16;;;;;;;13.00;8.52;;;;;;;;;;6304954;28;20062;-74
2023/09/23 04:38:18;;;;;;;14.85;10.23;;;;;;;;;;6332728;27;20051;-74
2023/09/23 04:41:22;;;;;;;11.70;5.95;;;;;;;;;;6304342;28;20429;-74
2023/09/23 04:44:25;;;;;;;12.82;8.75;;;;;;;;;;6336616;28;20039;-74
2023/09/23 04:47:27;;;;;;;14.35;8.60;;;;;;;;;;6320441;28;20059;-74
2023/09/23 04:50:29;;;;;;;13.90;10.98;;;;;;;;;;6324226;28;20135;-74
2023/09/23 04:53:31;;;;;;;12.18;9.60;;;;;;;;;;6330937;27;20047;-73
2023/09/23 04:56:35;;;;;;;15.45;7.93;;;;;;;;;;6316374;28;20055;-74
2023/09/23 04:59:39;;;;;;;12.00;9.25;;;;;;;;;;6337943;27;20040;-73
2023/09/23 05:02:41;;;;;;;15.38;9.35;;;;;;;;;;6328169;27;20802;-73
2023/09/23 05:05:45;;;;;;;11.15;7.25;;;;;;;;;;6318347;28;20048;-74
2023/09/23 05:08:47;;;;;;;14.65;9.07;;;;;;;;;;6341638;27;20177;-74
2023/09/23 05:11:51;;;;;;;14.50;5.78;;;;;;;;;;6337340;27;20422;-75
2023/09/23 05:14:57;;;;;;;22.23;8.50;;;;;;;;;;6309066;28;20064;-75
2023/09/23 05:18:01;;;;;;;17.85;8.63;;;;;;;;;;6339223;27;20124;-75
2023/09/23 05:21:04;;;;;;;12.60;8.07;;;;;;;;;;6322190;28;20043;-75
2023/09/23 05:24:09;;;;;;;15.55;8.75;;;;;;;;;;6320565;27;20050;-73
2023/09/23 05:27:15;;;;;;;16.10;9.23;;;;;;;;;;6332509;28;20130;-71
2023/09/23 05:30:18;;;;;;;12.20;8.07;;;;;;;;;;6314150;28;20044;-71
2023/09/23 05:33:21;;;;;;;14.80;8.98;;;;;;;;;;6328137;28;20051;-71
2023/09/23 05:36:23;;;;;;;13.88;8.32;;;;;;;;;;6333759;28;20054;-72
2023/09/23 05:39:25;;;;;;;12.32;7.30;;;;;;;;;;6333049;28;20542;-71
2023/09/23 05:42:30;;;;;;;11.38;7.65;;;;;;;;;;6331244;28;20048;-72
2023/09/23 05:45:35;;;;;;;13.05;5.00;;;;;;;;;;6317774;28;20050;-72
2023/09/23 05:48:37;;;;;;;12.50;8.18;;;;;;;;;;6312162;28;20051;-71
2023/09/23 05:51:40;;;;;;;8.35;5.00;;;;;;;;;;6325603;28;20062;-72
2023/09/23 05:54:42;;;;;;;14.73;8.32;;;;;;;;;;6327865;28;20044;-70
2023/09/23 05:57:44;;;;;;;16.75;8.65;;;;;;;;;;6311763;28;20044;-73
2023/09/23 06:00:46;;;;;;;12.07;6.85;;;;;;;;;;6335553;28;20509;-71
2023/09/23 06:03:50;;;;;;;14.88;8.15;;;;;;;;;;6316873;28;20059;-70
2023/09/23 06:06:54;;;;;;;17.48;6.22;;;;;;;;;;6335179;28;20047;-71
2023/09/23 06:10:03;;;;;;;11.80;8.20;;;;;;;;;;6331167;28;20047;-72
2023/09/23 06:13:06;;;;;;;16.75;7.35;;;;;;;;;;6334205;28;20505;-73
2023/09/23 06:16:08;;;;;;;15.88;7.68;;;;;;;;;;6345007;28;20043;-73
2023/09/23 06:19:12;;;;;;;16.48;6.30;;;;;;;;;;6318574;28;20430;-72
2023/09/23 06:22:14;;;;;;;11.57;5.38;;;;;;;;;;6316545;28;20047;-71
2023/09/23 06:25:16;;;;;;;14.68;5.95;;;;;;;;;;6335503;28;20445;-71
2023/09/23 06:28:18;;;;;;;11.85;7.05;;;;;;;;;;6335792;28;20035;-71
2023/09/23 06:31:21;;;;;;;21.13;8.98;;;;;;;;;;6335590;28;20085;-71
2023/09/23 06:34:23;;;;;;;16.33;6.35;;;;;;;;;;6321488;28;20540;-72
2023/09/23 06:37:27;;;;;;;19.58;7.60;;;;;;;;;;6339552;28;20746;-72
2023/09/23 06:40:29;;;;;;;13.00;7.30;;;;;;;;;;6340339;28;20039;-71
2023/09/23 06:43:31;;;;;;;12.23;7.25;;;;;;;;;;6340420;28;20044;-71
2023/09/23 06:46:36;;;;;;;12.13;7.75;;;;;;;;;;6329805;28;20047;-71
2023/09/23 06:49:40;;;;;;;12.38;9.65;;;;;;;;;;6340160;28;20043;-71
2023/09/23 06:52:43;;;;;;;14.13;7.15;;;;;;;;;;6340791;28;20054;-71
2023/09/23 06:55:45;;;;;;;13.93;7.53;;;;;;;;;;6339821;28;20104;-71
2023/09/23 06:58:47;;;;;;;18.90;7.45;;;;;;;;;;6339189;28;20058;-69
2023/09/23 07:01:50;;;;;;;14.27;7.35;;;;;;;;;;6339956;28;20051;-71
2023/09/23 07:04:53;;;;;;;11.48;7.63;;;;;;;;;;6340193;28;20096;-72
2023/09/23 07:07:55;;;;;;;13.23;7.82;;;;;;;;;;6339611;28;20051;-72
2023/09/23 07:10:57;;;;;;;11.45;6.03;;;;;;;;;;6340079;28;20035;-72
2023/09/23 07:14:00;;;;;;;26.92;13.40;;;;;;;;;;6333726;28;20039;-71
2023/09/23 07:17:04;;;;;;;11.50;4.65;;;;;;;;;;6313932;28;20040;-72
2023/09/23 07:20:07;;;;;;;15.90;6.82;;;;;;;;;;6328356;28;20044;-72
2023/09/23 07:23:09;;;;;;;14.00;6.07;;;;;;;;;;6325158;28;20047;-70
2023/09/23 07:26:20;;;;;;;15.30;8.30;;;;;;;;;;6325125;28;20079;-71
2023/09/23 07:29:22;;;;;;;11.27;5.35;;;;;;;;;;6330855;28;20068;-71
2023/09/23 07:32:26;;;;;;;15.32;5.43;;;;;;;;;;6313453;28;20058;-71
2023/09/23 07:35:32;;;;;;;18.40;8.57;;;;;;;;;;6331140;27;20040;-71
2023/09/23 07:38:34;;;;;;;13.77;5.35;;;;;;;;;;6328875;28;20052;-71
2023/09/23 07:41:37;;;;;;;14.02;7.18;;;;;;;;;;6331955;28;20048;-72
2023/09/23 07:44:39;;;;;;;13.77;7.65;;;;;;;;;;6322215;28;20100;-69
2023/09/23 07:47:41;;;;;;;15.45;8.63;;;;;;;;;;6325844;28;20836;-65
2023/09/23 07:53:33;;;;;;;11.57;5.18;;;;;;;;;;6312416;27;24549;-73
2023/09/23 07:56:35;;;;;;;14.10;5.00;;;;;;;;;;6293076;28;20048;-74
2023/09/23 07:59:37;;;;;;;11.23;4.93;;;;;;;;;;6304557;27;20048;-74
2023/09/23 08:02:39;;;;;;;15.52;4.85;;;;;;;;;;6305466;27;20048;-74
2023/09/23 08:05:42;;;;;;;18.50;5.40;;;;;;;;;;6318212;27;20551;-76
2023/09/23 08:08:44;;;;;;;15.52;5.45;;;;;;;;;;6317123;28;20551;-73
2023/09/23 08:11:46;;;;;;;14.40;5.38;;;;;;;;;;6303768;28;20040;-73
2023/09/23 08:14:48;;;;;;;13.23;5.03;;;;;;;;;;6305219;28;20037;-73
2023/09/23 08:43:52;;;;;;;14.73;4.65;;;;;;;;;;6255087;27;2382163;-76
2023/09/23 08:46:56;;;;;;;14.25;5.18;;;;;;;;;;6331353;28;20432;-72
2023/09/23 08:49:59;;;;;;;17.83;4.43;;;;;;;;;;6314303;28;20048;-72
2023/09/23 08:53:07;;;;;;;10.80;3.70;;;;;;;;;;6305739;28;20040;-72
2023/09/23 08:56:11;;;;;;;11.90;4.03;;;;;;;;;;6332244;28;20059;-73
2023/09/23 08:59:14;;;;;;;14.23;3.85;;;;;;;;;;6331455;28;20047;-74
2023/09/23 09:02:25;;;;;;;10.05;3.65;;;;;;;;;;6270472;28;20054;-75
2023/09/23 09:05:37;;;;;;;11.85;3.30;;;;;;;;;;6345273;28;20121;-76
2023/09/23 09:08:39;;;;;;;9.55;3.63;;;;;;;;;;6317245;28;20491;-74
2023/09/23 09:11:42;;;;;;;12.20;3.47;;;;;;;;;;6347658;28;20124;-74
2023/09/23 09:14:50;;;;;;;12.02;3.80;;;;;;;;;;6317820;28;20086;-75
2023/09/23 09:17:52;;;;;;;15.35;3.47;;;;;;;;;;6334193;28;20128;-75
2023/09/23 09:20:55;;;;;;;12.18;4.40;;;;;;;;;;6360243;28;20465;-73
2023/09/23 09:24:02;;;;;;;9.45;3.22;;;;;;;;;;6316290;28;20070;-73
2023/09/23 09:27:11;;;;;;;16.20;4.45;;;;;;;;;;6332800;28;20543;-73
2023/09/23 09:30:15;;;;;;;16.15;3.90;;;;;;;;;;6321844;28;20060;-75
2023/09/23 09:33:19;;;;;;;12.93;3.28;;;;;;;;;;6325101;28;20051;-79
2023/09/23 09:36:25;;;;;;;11.25;3.45;;;;;;;;;;6303946;28;20056;-65
2023/09/23 09:39:33;;;;;;;11.32;4.00;;;;;;;;;;6329922;28;20055;-65
2023/09/23 09:42:35;;;;;;;21.17;4.68;;;;;;;;;;6293849;28;20036;-65
2023/09/23 09:45:40;;;;;;;12.55;3.63;;;;;;;;;;6307990;28;20051;-64
2023/09/23 09:48:42;;;;;;;13.10;3.47;;;;;;;;;;6308041;28;20671;-65
2023/09/23 09:51:48;;;;;;;18.15;4.88;;;;;;;;;;6328369;28;20044;-64
2023/09/23 09:54:53;;;;;;;14.20;4.20;;;;;;;;;;6313094;28;20055;-65
2023/09/23 09:57:55;;;;;;;14.07;4.40;;;;;;;;;;6291096;28;20665;-64
2023/09/23 10:00:57;;;;;;;13.02;2.80;;;;;;;;;;6311638;28;20036;-64
2023/09/23 10:03:59;;;;;;;13.10;3.72;;;;;;;;;;6308788;28;20580;-65
2023/09/23 10:07:06;;;;;;;17.13;4.65;;;;;;;;;;6312133;28;20068;-65
2023/09/23 10:10:13;;;;;;;16.77;3.67;;;;;;;;;;6310472;28;20052;-65
2023/09/23 10:13:22;;;;;;;12.95;4.18;;;;;;;;;;6310450;28;20051;-65
2023/09/23 10:16:29;;;;;;;16.52;4.25;;;;;;;;;;6304273;28;20052;-65
2023/09/23 10:19:38;;;;;;;16.58;3.67;;;;;;;;;;6313840;28;20060;-65
2023/09/23 10:22:51;;;;;;;13.20;3.53;;;;;;;;;;6313512;28;20046;-65
2023/09/23 10:25:53;;;;;;;11.48;3.65;;;;;;;;;;6311115;28;20048;-65
2023/09/23 10:28:57;;;;;;;15.40;4.53;;;;;;;;;;6309806;28;20059;-64
2023/09/23 10:32:09;;;;;;;13.55;4.00;;;;;;;;;;6313841;28;20136;-64
2023/09/23 10:35:11;;;;;;;11.88;3.60;;;;;;;;;;6312810;28;20066;-64
2023/09/23 10:38:35;;;;;;;15.75;3.50;;;;;;;;;;6303613;28;20717;-64
2023/09/23 10:41:37;;;;;;;17.98;3.97;;;;;;;;;;6305569;28;20036;-63
2023/09/23 10:44:39;;;;;;;16.67;4.35;;;;;;;;;;6313217;28;20078;-66
2023/09/23 10:47:43;;;;;;;20.88;4.82;;;;;;;;;;6312660;28;20414;-66
2023/09/23 10:50:46;;;;;;;13.25;3.88;;;;;;;;;;6313664;28;20067;-66
2023/09/23 10:53:49;;;;;;;13.57;3.55;;;;;;;;;;6293775;28;20052;-67
2023/09/23 10:56:51;;;;;;;22.40;4.45;;;;;;;;;;6313541;28;20063;-66
2023/09/23 10:59:54;;;;;;;16.50;3.70;;;;;;;;;;6312252;28;20054;-66
2023/09/23 11:02:57;;;;;;;15.75;4.85;;;;;;;;;;6312539;28;20052;-66
2023/09/23 11:06:01;;;;;;;17.33;3.03;;;;;;;;;;6308630;28;20948;-66
2023/09/23 11:09:09;;;;;;;22.38;4.43;;;;;;;;;;6293552;28;20048;-66
2023/09/23 11:12:15;;;;;;;14.45;3.53;;;;;;;;;;6312221;28;20040;-66
2023/09/23 11:15:17;;;;;;;23.13;4.28;;;;;;;;;;6313136;28;20130;-66
2023/09/23 11:18:19;;;;;;;108.80;76.80;;;;;;;;;;6299739;28;20052;-65
2023/09/23 11:21:21;;;;;;;20.02;4.80;;;;;;;;;;6312576;28;20052;-66
2023/09/23 11:24:23;;;;;;;13.60;3.65;;;;;;;;;;6310606;28;20048;-66
2023/09/23 11:27:26;;;;;;;15.18;3.80;;;;;;;;;;6312542;28;20628;-66
2023/09/23 11:30:29;;;;;;;16.75;4.10;;;;;;;;;;6311587;28;20055;-66
2023/09/23 11:33:31;;;;;;;19.63;3.72;;;;;;;;;;6311576;28;20044;-64
2023/09/23 11:36:34;;;;;;;14.65;3.75;;;;;;;;;;6309991;28;20052;-64
2023/09/23 11:39:37;;;;;;;24.58;4.75;;;;;;;;;;6311491;28;20058;-66
2023/09/23 11:42:39;;;;;;;17.67;4.80;;;;;;;;;;6312211;28;20048;-65
2023/09/23 11:45:42;;;;;;;15.60;4.10;;;;;;;;;;6311457;28;20051;-66
2023/09/23 11:48:48;;;;;;;19.67;3.47;;;;;;;;;;6311142;28;20140;-66
2023/09/23 11:51:50;;;;;;;21.73;3.75;;;;;;;;;;6321572;28;20158;-63
2023/09/23 11:54:51;;;;;;;16.48;4.40;;;;;;;;;;6310059;28;20055;-64
2023/09/23 11:57:54;;;;;;;20.98;4.82;;;;;;;;;;6308376;28;20047;-64
2023/09/23 12:01:01;;;;;;;21.33;4.28;;;;;;;;;;6320624;28;20071;-77
2023/09/23 12:04:04;;;;;;;27.90;5.13;;;;;;;;;;6294284;28;20068;-76
2023/09/23 12:07:08;;;;;;;;;;;;;;;;;;6290996;28;20077;-76
2023/09/23 12:10:16;;;;;;;21.58;4.30;;;;;;;;;;6327691;28;19924;-76
2023/09/23 12:13:19;;;;;;;17.20;4.00;;;;;;;;;;6298104;28;20036;-77
2023/09/23 12:16:22;;;;;;;12.63;3.70;;;;;;;;;;6334888;28;20070;-77
2023/09/23 12:19:25;;;;;;;25.15;4.47;;;;;;;;;;6303175;28;20046;-75
2023/09/23 12:22:28;;;;;;;26.85;4.43;;;;;;;;;;6316798;28;20039;-76
2023/09/23 12:25:32;;;;;;;22.35;4.40;;;;;;;;;;6295608;28;20071;-77
2023/09/23 12:28:34;;;;;;;21.50;4.30;;;;;;;;;;6318540;28;20055;-76
2023/09/23 12:31:37;;;;;;;23.00;4.57;;;;;;;;;;6325411;28;20055;-76
2023/09/23 12:34:39;;;;;;;23.38;4.32;;;;;;;;;;6321136;28;20099;-77
2023/09/23 12:37:44;;;;;;;21.25;4.05;;;;;;;;;;6308051;28;20108;-77
2023/09/23 12:40:46;;;;;;;23.20;4.57;;;;;;;;;;6342538;28;20040;-78
2023/09/23 12:43:48;;;;;;;21.70;4.63;;;;;;;;;;6292425;28;20086;-76
2023/09/23 12:46:51;;;;;;;29.73;4.53;;;;;;;;;;6314133;28;20139;-76
2023/09/23 12:49:53;;;;;;;20.73;4.93;;;;;;;;;;6311285;28;20055;-79
2023/09/23 12:52:57;;;;;;;22.50;3.65;;;;;;;;;;6341068;28;20389;-75
2023/09/23 12:56:01;;;;;;;26.48;4.45;;;;;;;;;;6331291;28;20107;-76
2023/09/23 12:59:06;;;;;;;15.95;4.50;;;;;;;;;;6316786;28;20044;-77
2023/09/23 13:02:08;;;;;;;;;;;;;;;;;;6299455;28;20131;-76
2023/09/23 13:05:10;;;;;;;26.58;5.30;;;;;;;;;;6301627;28;19942;-77
2023/09/23 13:08:14;;;;;;;31.05;5.00;;;;;;;;;;6307634;28;20049;-75
2023/09/23 13:11:17;;;;;;;32.15;3.88;;;;;;;;;;6306468;28;20652;-75
2023/09/23 13:14:21;;;;;;;26.30;4.75;;;;;;;;;;6340343;28;20096;-76
2023/09/23 13:17:23;;;;;;;33.90;5.03;;;;;;;;;;6308244;28;20742;-75
2023/09/23 13:20:25;;;;;;;26.08;5.38;;;;;;;;;;6313543;28;20040;-75
2023/09/23 13:23:28;;;;;;;29.23;5.72;;;;;;;;;;6295963;28;20048;-76
2023/09/23 13:26:30;;;;;;;19.95;5.40;;;;;;;;;;6297743;28;20044;-74
2023/09/23 13:29:33;;;;;;;20.00;3.72;;;;;;;;;;6314087;28;20557;-73
2023/09/23 13:32:37;;;;;;;27.38;4.70;;;;;;;;;;6318891;28;20048;-73
2023/09/23 13:35:42;;;;;;;23.85;4.18;;;;;;;;;;6321049;28;20032;-71
2023/09/23 13:38:46;;;;;;;24.77;4.55;;;;;;;;;;6323579;28;20043;-71
2023/09/23 13:41:48;;;;;;;28.27;4.68;;;;;;;;;;6324350;28;20047;-72
2023/09/23 13:44:50;;;;;;;27.98;5.53;;;;;;;;;;6321003;28;20040;-77
2023/09/23 13:47:52;;;;;;;26.10;6.65;;;;;;;;;;6303198;28;20040;-79
2023/09/23 13:50:55;;;;;;;31.63;6.18;;;;;;;;;;6283586;28;20047;-79
2023/09/23 13:53:57;;;;;;;23.30;4.63;;;;;;;;;;6291664;28;20039;-76
2023/09/23 13:56:59;;;;;;;27.23;4.72;;;;;;;;;;6301370;28;20040;-76
2023/09/23 14:00:02;;;;;;;22.05;4.88;;;;;;;;;;6299554;28;20040;-75
2023/09/23 14:03:06;;;;;;;23.80;4.97;;;;;;;;;;6304267;28;20063;-76
2023/09/23 14:06:08;;;;;;;25.58;4.78;;;;;;;;;;6302313;28;20133;-75
2023/09/23 14:09:11;;;;;;;29.13;5.28;;;;;;;;;;6276586;28;20059;-76
2023/09/23 14:12:13;;;;;;;30.70;5.32;;;;;;;;;;6319230;28;20039;-78
2023/09/23 14:15:17;;;;;;;29.38;5.70;;;;;;;;;;6296756;28;20379;-75
2023/09/23 14:18:19;;;;;;;26.10;5.53;;;;;;;;;;6317323;28;20059;-74
2023/09/23 14:21:22;;;;;;;24.15;5.00;;;;;;;;;;6275310;28;20048;-79
2023/09/23 14:24:26;;;;;;;32.22;5.95;;;;;;;;;;6273400;28;20054;-79
2023/09/23 14:27:32;;;;;;;35.83;5.95;;;;;;;;;;6325846;28;20040;-80
2023/09/23 14:30:35;;;;;;;25.13;4.68;;;;;;;;;;6325696;28;20047;-82
2023/09/23 14:33:41;;;;;;;35.00;5.13;;;;;;;;;;6300616;28;20063;-78
2023/09/23 14:36:43;;;;;;;25.10;4.60;;;;;;;;;;6278561;28;20433;-70
2023/09/23 14:39:45;;;;;;;30.38;6.15;;;;;;;;;;6312078;28;20174;-70
2023/09/23 14:42:47;;;;;;;27.25;5.68;;;;;;;;;;6304856;28;20059;-70
2023/09/23 14:45:51;;;;;;;23.75;5.35;;;;;;;;;;6306333;28;20048;-71
2023/09/23 14:48:53;;;;;;;27.00;5.63;;;;;;;;;;6307001;28;20040;-73
2023/09/23 14:51:57;;;;;;;28.05;5.47;;;;;;;;;;6293938;28;20079;-72
2023/09/23 14:55:00;;;;;;;;;;;;;;;;;;6309557;28;20041;-79
2023/09/23 14:58:04;;;;;;;30.27;4.97;;;;;;;;;;6294343;28;19931;-78
2023/09/23 15:01:08;;;;;;;25.63;5.13;;;;;;;;;;6288255;28;20708;-77
2023/09/23 15:04:11;;;;;;;25.73;5.07;;;;;;;;;;6319737;28;20075;-77
2023/09/23 15:07:14;;;;;;;28.20;4.93;;;;;;;;;;6292075;28;20044;-78
2023/09/23 15:10:21;;;;;;;20.58;4.80;;;;;;;;;;6297869;28;20055;-78
2023/09/23 15:13:23;;;;;;;25.23;4.03;;;;;;;;;;6322776;28;20047;-78
2023/09/23 15:16:26;;;;;;;22.65;3.67;;;;;;;;;;6331121;28;20047;-77
2023/09/23 15:19:30;;;;;;;21.85;4.13;;;;;;;;;;6310294;28;20051;-73
2023/09/23 15:22:32;;;;;;;25.48;4.05;;;;;;;;;;6319003;28;20032;-75
2023/09/23 15:25:35;;;;;;;19.83;3.85;;;;;;;;;;6313066;28;20059;-76
2023/09/23 15:28:39;;;;;;;16.98;3.38;;;;;;;;;;6280334;28;20529;-76
2023/09/23 15:31:41;;;;;;;22.95;4.40;;;;;;;;;;6292439;28;20517;-75
2023/09/23 15:34:44;;;;;;;18.17;3.85;;;;;;;;;;6288806;28;20035;-69
2023/09/23 15:37:47;;;;;;;19.48;3.95;;;;;;;;;;6319905;28;20055;-71
2023/09/23 15:40:50;;;;;;;16.73;3.60;;;;;;;;;;6317613;28;20058;-72
2023/09/23 15:43:52;;;;;;;20.95;3.50;;;;;;;;;;6290915;28;20040;-70
2023/09/23 15:46:57;;;;;;;19.50;4.28;;;;;;;;;;6309225;28;20051;-71
2023/09/23 15:50:00;;;;;;;22.55;4.55;;;;;;;;;;6308920;28;20051;-70
2023/09/23 15:53:04;;;;;;;17.92;4.70;;;;;;;;;;6308002;28;20043;-70
2023/09/23 15:56:06;;;;;;;17.77;5.03;;;;;;;;;;6297391;28;20052;-71
2023/09/23 15:59:10;;;;;;;13.45;4.68;;;;;;;;;;6309021;28;20056;-71
2023/09/23 16:02:12;;;;;;;14.02;3.78;;;;;;;;;;6309447;28;20634;-72
2023/09/23 16:05:15;;;;;;;20.50;4.22;;;;;;;;;;6308390;28;20055;-71
2023/09/23 16:08:17;;;;;;;20.83;3.30;;;;;;;;;;6321348;28;20047;-71
2023/09/23 16:11:20;;;;;;;17.20;3.78;;;;;;;;;;6294223;28;20048;-70
2023/09/23 16:14:25;;;;;;;12.82;2.95;;;;;;;;;;6310435;28;20048;-71
2023/09/23 16:17:27;;;;;;;14.38;3.67;;;;;;;;;;6308925;28;20037;-71
2023/09/23 16:20:30;;;;;;;15.65;3.38;;;;;;;;;;6311572;28;20048;-72
2023/09/23 16:23:34;;;;;;;20.65;4.60;;;;;;;;;;6308756;28;20131;-73
2023/09/23 16:26:36;;;;;;;38.20;4.43;;;;;;;;;;6315041;28;20100;-70
2023/09/23 16:29:40;;;;;;;21.73;4.28;;;;;;;;;;6317461;28;20542;-71
2023/09/23 16:32:42;;;;;;;17.80;3.50;;;;;;;;;;6318589;28;20858;-71
2023/09/23 16:35:45;;;;;;;18.50;4.30;;;;;;;;;;6302956;28;20543;-72
2023/09/23 16:38:47;;;;;;;18.40;4.05;;;;;;;;;;6313171;28;20067;-71
2023/09/23 16:41:49;;;;;;;16.08;4.30;;;;;;;;;;6317325;28;20043;-70
2023/09/23 16:44:51;;;;;;;12.95;2.90;;;;;;;;;;6321633;28;20043;-71
2023/09/23 16:47:53;;;;;;;14.05;3.65;;;;;;;;;;6315398;28;20062;-70
2023/09/23 16:50:55;;;;;;;24.63;3.80;;;;;;;;;;6294599;28;20059;-70
2023/09/23 16:53:57;;;;;;;13.93;3.40;;;;;;;;;;6314078;28;20217;-71
2023/09/23 16:57:00;;;;;;;23.90;4.72;;;;;;;;;;6309545;28;20048;-75
2023/09/23 17:00:03;;;;;;;14.07;4.20;;;;;;;;;;6283180;28;20932;-72
2023/09/23 17:03:07;;;;;;;18.13;3.97;;;;;;;;;;6295280;28;20166;-75
2023/09/23 17:06:09;;;;;;;13.40;2.90;;;;;;;;;;6311140;28;20056;-76
2023/09/23 17:09:11;;;;;;;17.27;4.25;;;;;;;;;;6298252;28;20043;-76
2023/09/23 17:12:16;;;;;;;17.13;4.25;;;;;;;;;;6301622;28;20052;-76
2023/09/23 17:15:19;;;;;;;15.75;3.85;;;;;;;;;;6289815;28;20036;-76
2023/09/23 17:18:22;;;;;;;15.65;4.43;;;;;;;;;;6308304;28;20059;-76
2023/09/23 17:21:24;;;;;;;14.05;3.15;;;;;;;;;;6301565;28;20071;-75
2023/09/23 17:24:28;;;;;;;14.70;3.60;;;;;;;;;;6320022;28;20127;-76
2023/09/23 17:27:31;;;;;;;20.17;5.80;;;;;;;;;;6302211;28;20051;-75
2023/09/23 17:30:36;;;;;;;16.55;4.03;;;;;;;;;;6309122;28;20071;-75
2023/09/23 17:33:38;;;;;;;14.63;3.25;;;;;;;;;;6296880;28;20052;-75
2023/09/23 17:36:44;;;;;;;14.38;3.50;;;;;;;;;;6323315;28;20063;-75
2023/09/23 17:39:46;;;;;;;18.52;4.68;;;;;;;;;;6308499;28;20052;-77
2023/09/23 17:42:50;;;;;;;15.85;4.80;;;;;;;;;;6310359;28;20233;-76
2023/09/23 17:45:52;;;;;;;16.20;3.67;;;;;;;;;;6289503;28;20354;-75
2023/09/23 17:48:55;;;;;;;20.88;4.30;;;;;;;;;;6301790;28;20044;-77
2023/09/23 17:51:57;;;;;;;16.50;4.28;;;;;;;;;;6274500;28;20508;-76
2023/09/23 17:55:00;;;;;;;10.50;3.47;;;;;;;;;;6302498;28;20056;-75
2023/09/23 17:58:03;;;;;;;22.83;4.38;;;;;;;;;;6323760;28;20032;-77
2023/09/23 18:01:10;;;;;;;13.10;4.18;;;;;;;;;;6330548;28;20052;-77
2023/09/23 18:04:13;;;;;;;19.25;4.35;;;;;;;;;;6310268;28;20075;-77
2023/09/23 18:07:17;;;;;;;18.88;3.00;;;;;;;;;;6282007;28;20051;-77
2023/09/23 18:10:19;;;;;;;15.52;3.42;;;;;;;;;;6298440;28;20580;-74
2023/09/23 18:13:22;;;;;;;10.63;3.13;;;;;;;;;;6309505;28;20569;-75
2023/09/23 18:16:24;;;;;;;16.50;3.35;;;;;;;;;;6315463;28;20055;-75
2023/09/23 18:19:26;;;;;;;16.15;3.85;;;;;;;;;;6278516;28;20048;-75
2023/09/23 18:22:29;;;;;;;14.88;3.88;;;;;;;;;;6296193;28;20040;-74
2023/09/23 18:25:32;;;;;;;16.45;4.95;;;;;;;;;;6287933;28;20060;-73
2023/09/23 18:28:35;;;;;;;17.63;4.20;;;;;;;;;;6314114;28;20088;-80
2023/09/23 18:31:45;;;;;;;15.57;5.70;;;;;;;;;;6284670;28;20488;-77
2023/09/23 18:34:47;;;;;;;15.95;3.78;;;;;;;;;;6309347;28;20115;-77